Time;durP1;ratioP1;P1;durP2;ratioP2;P2;SDS_P1;SDS_P2;PMS_P1;PMS_P2;Temp;Humidity;BMP_temperature;BMP_pressure;BME280_temperature;BME280_humidity;BME280_pressure;Samples;Min_cycle;Max_cycle;Signal;HPM_P1;HPM_P2
2023/03/09 00:01:54;;;;;;;;;;;;;;;23.61;35.11;94516.94;5024189;28;1437;-72
2023/03/09 00:04:19;;;;;;;;;;;;;;;23.56;35.50;94517.66;4997262;28;1323;-72
2023/03/09 00:06:44;;;;;;;;;;;;;;;23.56;35.34;94508.78;5029400;28;1562;-72
2023/03/09 00:09:10;;;;;;;;;;;;;;;23.56;35.52;94509.63;5022224;28;1902;-72
2023/03/09 00:11:38;;;;;;;;;;;;;;;23.58;35.55;94507.50;4998225;28;1370;-71
2023/03/09 00:14:04;;;;;;;;;;;;;;;23.66;35.32;94508.19;5016856;28;1366;-70
2023/03/09 00:16:29;;;;;;;;;;;;;;;23.64;35.57;94504.94;5010133;28;1330;-70
2023/03/09 00:18:57;;;;;;;;;;;;;;;23.65;35.31;94503.88;5012000;28;1358;-70
2023/03/09 00:21:56;;;;;;;;;;;;;;;23.63;35.55;94503.31;5005760;28;1303;-70
2023/03/09 00:24:16;;;;;;;;;;;;;;;23.65;35.29;94509.22;5019578;28;1314;-71
2023/03/09 00:26:48;;;;;;;;;;;;;;;23.63;35.47;94492.59;5001634;28;1346;-72
2023/03/09 00:29:13;;;;;;;;;;;;;;;23.61;35.47;94494.69;5015702;28;1964;-70
2023/03/09 00:31:39;;;;;;;;;;;;;;;23.67;35.30;94493.75;5005712;28;1334;-72
2023/03/09 00:34:05;;;;;;;;;;;;;;;23.66;35.53;94490.25;5014848;28;1425;-72
2023/03/09 00:36:30;;;;;;;;;;;;;;;23.63;35.50;94501.44;5020420;28;1326;-72
2023/03/09 00:38:56;;;;;;;;;;;;;;;23.65;35.52;94491.31;5013839;28;1396;-72
2023/03/09 00:41:22;;;;;;;;;;;;;;;23.63;35.81;94487.25;5005740;28;1334;-72
2023/03/09 00:43:48;;;;;;;;;;;;;;;23.64;35.63;94491.53;4984874;28;1271;-72
2023/03/09 00:46:14;;;;;;;;;;;;;;;23.63;35.56;94481.91;4984162;28;1346;-72
2023/03/09 00:48:39;;;;;;;;;;;;;;;23.61;35.62;94473.28;5018154;28;1954;-72
2023/03/09 00:51:05;;;;;;;;;;;;;;;23.63;35.87;94471.19;5017709;28;1338;-69
2023/03/09 00:53:30;;;;;;;;;;;;;;;23.72;36.00;94464.44;5007464;28;1386;-69
2023/03/09 00:55:56;;;;;;;;;;;;;;;23.77;35.58;94467.22;5003126;28;1342;-69
2023/03/09 00:58:21;;;;;;;;;;;;;;;23.76;35.92;94462.88;5013879;28;901;-69
2023/03/09 01:00:46;;;;;;;;;;;;;;;23.73;35.85;94449.97;5013484;28;1498;-67
2023/03/09 01:03:12;;;;;;;;;;;;;;;23.69;36.07;94454.97;5013801;28;1469;-68
2023/03/09 01:05:38;;;;;;;;;;;;;;;23.69;36.21;94462.19;4986788;28;1582;-68
2023/03/09 01:08:03;;;;;;;;;;;;;;;23.68;36.06;94464.06;5012807;28;1969;-68
2023/03/09 01:10:28;;;;;;;;;;;;;;;23.71;36.22;94462.81;5008025;28;1507;-69
2023/03/09 01:12:54;;;;;;;;;;;;;;;23.70;36.30;94461.13;4978022;28;1410;-69
2023/03/09 01:15:20;;;;;;;;;;;;;;;23.79;36.01;94460.56;5002808;28;1338;-68
2023/03/09 01:17:47;;;;;;;;;;;;;;;23.80;35.84;94456.00;4988386;28;1274;-69
2023/03/09 01:20:13;;;;;;;;;;;;;;;23.80;35.93;94456.00;5015801;28;1476;-70
2023/03/09 01:22:38;;;;;;;;;;;;;;;23.75;36.34;94442.53;5014720;28;1400;-69
2023/03/09 01:25:04;;;;;;;;;;;;;;;23.73;36.03;94452.66;5014675;28;1350;-69
2023/03/09 01:27:29;;;;;;;;;;;;;;;23.72;36.26;94451.03;4992856;28;1366;-69
2023/03/09 01:29:55;;;;;;;;;;;;;;;23.66;36.23;94438.56;4978427;28;1918;-68
2023/03/09 01:32:20;;;;;;;;;;;;;;;23.68;36.47;94431.09;5005783;28;1334;-69
2023/03/09 01:34:45;;;;;;;;;;;;;;;23.72;36.35;94426.94;5007734;28;1406;-68
2023/03/09 01:37:11;;;;;;;;;;;;;;;23.76;36.45;94428.06;5022243;28;1488;-69
2023/03/09 01:39:36;;;;;;;;;;;;;;;23.73;36.50;94428.53;4976396;28;1412;-68
2023/03/09 01:42:01;;;;;;;;;;;;;;;23.76;36.38;94431.59;4984596;28;1464;-67
2023/03/09 01:44:27;;;;;;;;;;;;;;;23.72;36.38;94424.25;5013162;28;865;-68
2023/03/09 01:46:55;;;;;;;;;;;;;;;23.72;36.55;94416.22;5005027;28;1481;-67
2023/03/09 01:49:26;;;;;;;;;;;;;;;23.72;36.52;94409.00;5006692;28;1903;-67
2023/03/09 01:51:55;;;;;;;;;;;;;;;23.67;36.36;94424.94;5015001;28;1334;-67
2023/03/09 01:54:27;;;;;;;;;;;;;;;23.65;36.38;94424.38;4995251;28;1347;-68
2023/03/09 01:56:55;;;;;;;;;;;;;;;23.65;36.64;94412.81;4988969;28;1370;-68
2023/03/09 01:59:21;;;;;;;;;;;;;;;23.64;36.67;94401.31;5006965;28;1153;-69
2023/03/09 02:01:46;;;;;;;;;;;;;;;23.61;36.51;94403.66;4987376;28;1464;-69
2023/03/09 02:04:15;;;;;;;;;;;;;;;23.64;36.69;94416.56;5012529;28;1273;-68
2023/03/09 02:06:41;;;;;;;;;;;;;;;23.63;36.51;94422.97;5028836;28;1389;-69
2023/03/09 02:09:06;;;;;;;;;;;;;;;23.58;36.74;94424.50;4990621;28;1902;-68
2023/03/09 02:11:31;;;;;;;;;;;;;;;23.62;36.57;94413.31;5006695;28;1257;-69
2023/03/09 02:13:58;;;;;;;;;;;;;;;23.65;36.52;94410.16;4987712;28;1306;-68
2023/03/09 02:16:23;;;;;;;;;;;;;;;23.68;36.61;94420.38;4986430;28;1386;-69
2023/03/09 02:18:48;;;;;;;;;;;;;;;23.66;36.56;94433.22;5010978;28;1354;-69
2023/03/09 02:21:24;;;;;;;;;;;;;;;23.65;36.73;94440.44;4994325;28;1350;-69
2023/03/09 02:24:08;;;;;;;;;;;;;;;23.67;36.50;94434.84;5012917;28;1412;-69
2023/03/09 02:26:38;;;;;;;;;;;;;;;23.69;36.49;94422.03;5002234;28;1276;-69
2023/03/09 02:29:04;;;;;;;;;;;;;;;23.69;36.94;94424.69;4979285;28;1959;-69
2023/03/09 02:31:29;;;;;;;;;;;;;;;23.71;36.76;94422.63;5007821;28;1386;-69
2023/03/09 02:33:54;;;;;;;;;;;;;;;23.71;36.97;94433.34;4977157;28;1469;-69
2023/03/09 02:36:21;;;;;;;;;;;;;;;23.75;37.09;94447.88;5008446;28;1421;-68
2023/03/09 02:38:46;;;;;;;;;;;;;;;23.72;37.28;94438.44;4999182;28;1421;-68
2023/03/09 02:41:12;;;;;;;;;;;;;;;23.75;37.17;94431.81;5015381;28;1354;-68
2023/03/09 02:43:42;;;;;;;;;;;;;;;23.81;36.84;94430.84;4985284;28;1390;-69
2023/03/09 02:46:07;;;;;;;;;;;;;;;23.78;37.23;94436.69;5020788;28;1354;-69
2023/03/09 02:48:33;;;;;;;;;;;;;;;23.74;37.28;94444.41;4999771;28;1894;-69
2023/03/09 02:50:58;;;;;;;;;;;;;;;23.75;37.10;94442.53;4988746;28;1425;-68
2023/03/09 02:53:23;;;;;;;;;;;;;;;23.78;37.44;94439.38;5017657;28;1323;-69
2023/03/09 02:55:49;;;;;;;;;;;;;;;23.83;37.41;94436.78;5010802;28;1350;-67
2023/03/09 02:58:14;;;;;;;;;;;;;;;23.91;37.38;94446.31;5012806;28;1397;-70
2023/03/09 03:00:39;;;;;;;;;;;;;;;23.91;36.76;94441.75;5020604;28;1422;-71
2023/03/09 03:03:04;;;;;;;;;;;;;;;23.83;36.87;94426.06;5012066;28;1315;-72
2023/03/09 03:05:30;;;;;;;;;;;;;;;23.79;36.99;94439.13;4996716;28;1349;-72
2023/03/09 03:07:55;;;;;;;;;;;;;;;23.81;36.86;94446.09;5013902;28;1976;-72
2023/03/09 03:10:20;;;;;;;;;;;;;;;23.84;36.70;94441.06;5027781;28;1472;-72
2023/03/09 03:12:46;;;;;;;;;;;;;;;23.81;36.76;94436.19;5005528;28;1317;-72
2023/03/09 03:15:11;;;;;;;;;;;;;;;23.79;36.87;94449.00;5005411;28;1412;-72
2023/03/09 03:17:37;;;;;;;;;;;;;;;23.81;37.10;94446.91;5002915;28;1416;-73
2023/03/09 03:20:05;;;;;;;;;;;;;;;23.81;36.80;94459.50;5025944;28;1402;-72
2023/03/09 03:22:30;;;;;;;;;;;;;;;23.77;36.89;94456.50;5002839;28;1334;-72
2023/03/09 03:24:55;;;;;;;;;;;;;;;23.79;37.09;94455.22;4999888;28;1374;-72
2023/03/09 03:27:21;;;;;;;;;;;;;;;23.81;37.00;94454.94;5017061;28;1406;-73
2023/03/09 03:29:46;;;;;;;;;;;;;;;23.84;36.41;94441.06;5003475;28;1973;-71
2023/03/09 03:32:11;;;;;;;;;;;;;;;23.86;36.24;94441.66;5015389;28;1370;-71
2023/03/09 03:34:37;;;;;;;;;;;;;;;23.86;36.42;94444.34;5004521;28;1409;-70
2023/03/09 03:37:02;;;;;;;;;;;;;;;23.96;36.17;94459.78;5003984;28;1204;-70
2023/03/09 03:39:28;;;;;;;;;;;;;;;23.95;36.14;94456.28;5011206;28;1473;-70
2023/03/09 03:41:53;;;;;;;;;;;;;;;24.05;35.79;94452.16;5015203;28;1287;-70
2023/03/09 03:44:18;;;;;;;;;;;;;;;24.00;35.99;94456.38;5010156;28;1373;-75
2023/03/09 03:46:44;;;;;;;;;;;;;;;23.87;35.74;94450.50;4977269;28;1422;-73
2023/03/09 03:49:09;;;;;;;;;;;;;;;23.78;35.78;94447.41;4996695;28;1965;-72
2023/03/09 03:51:34;;;;;;;;;;;;;;;23.69;35.94;94446.13;5002539;28;1421;-73
2023/03/09 03:54:00;;;;;;;;;;;;;;;23.63;35.58;94455.13;5007088;28;1346;-73
2023/03/09 03:56:25;;;;;;;;;;;;;;;23.63;35.37;94471.19;5007573;28;1330;-72
2023/03/09 03:58:50;;;;;;;;;;;;;;;23.59;35.18;94462.78;5016764;28;1389;-73
2023/03/09 04:01:16;;;;;;;;;;;;;;;23.56;35.06;94464.09;5018989;28;1408;-72
2023/03/09 04:03:41;;;;;;;;;;;;;;;23.17;29.39;94459.50;5003592;28;1361;-73
2023/03/09 04:06:06;;;;;;;;;;;;;;;21.81;30.69;94440.72;5007757;28;1227;-72
2023/03/09 04:08:32;;;;;;;;;;;;;;;22.39;32.66;94440.06;4995955;28;1918;-72
2023/03/09 04:10:57;;;;;;;;;;;;;;;22.84;32.76;94447.53;5014360;28;1397;-72
2023/03/09 04:13:23;;;;;;;;;;;;;;;23.08;32.83;94454.53;5022541;28;1488;-71
2023/03/09 04:15:48;;;;;;;;;;;;;;;23.22;32.79;94451.59;4996852;28;1342;-71
2023/03/09 04:18:14;;;;;;;;;;;;;;;23.29;32.75;94438.91;4991889;28;1401;-71
2023/03/09 04:20:40;;;;;;;;;;;;;;;23.30;32.52;94440.53;4983047;28;1381;-71
2023/03/09 04:23:06;;;;;;;;;;;;;;;23.30;32.65;94437.84;5009168;28;1342;-70
2023/03/09 04:25:31;;;;;;;;;;;;;;;23.32;32.79;94449.94;5027112;28;1350;-70
2023/03/09 04:27:56;;;;;;;;;;;;;;;23.34;32.70;94452.41;5003920;28;1910;-70
2023/03/09 04:30:22;;;;;;;;;;;;;;;23.37;32.89;94425.16;4992485;28;1565;-70
2023/03/09 04:32:48;;;;;;;;;;;;;;;23.37;32.87;94427.84;5011830;28;1417;-70
2023/03/09 04:35:13;;;;;;;;;;;;;;;23.37;32.85;94437.72;4995785;28;1330;-71
2023/03/09 04:37:39;;;;;;;;;;;;;;;23.18;28.45;94423.69;5006380;28;1402;-71
2023/03/09 04:40:05;;;;;;;;;;;;;;;21.60;28.25;94426.84;4998082;28;1468;-70
2023/03/09 04:42:30;;;;;;;;;;;;;;;21.10;28.79;94427.00;4986160;28;1185;-71
2023/03/09 04:44:56;;;;;;;;;;;;;;;20.91;27.50;94428.03;5010908;28;1479;-71
2023/03/09 04:47:22;;;;;;;;;;;;;;;20.97;27.06;94411.16;5014045;28;1349;-71
2023/03/09 04:49:48;;;;;;;;;;;;;;;20.75;26.64;94414.28;5001629;28;1906;-70
2023/03/09 04:52:13;;;;;;;;;;;;;;;20.58;27.12;94422.00;5011168;28;1429;-73
2023/03/09 04:54:39;;;;;;;;;;;;;;;20.92;27.33;94417.16;4993338;28;1310;-75
2023/03/09 04:57:04;;;;;;;;;;;;;;;20.95;26.33;94411.38;5014470;28;1219;-74
2023/03/09 04:59:29;;;;;;;;;;;;;;;20.67;26.14;94427.88;5018274;28;1329;-67
2023/03/09 05:01:55;;;;;;;;;;;;;;;20.26;26.22;94415.91;5010944;28;1465;-68
2023/03/09 05:04:20;;;;;;;;;;;;;;;20.13;26.49;94416.84;5005299;28;1186;-71
2023/03/09 05:06:46;;;;;;;;;;;;;;;19.97;26.05;94418.16;5015832;28;1315;-73
2023/03/09 05:09:12;;;;;;;;;;;;;;;20.18;27.34;94410.88;5021496;28;1963;-72
2023/03/09 05:11:38;;;;;;;;;;;;;;;20.91;27.59;94396.84;5018258;28;1361;-72
2023/03/09 05:14:03;;;;;;;;;;;;;;;21.35;27.61;94426.94;5013277;28;939;-72
2023/03/09 05:16:28;;;;;;;;;;;;;;;21.67;27.59;94416.06;4997269;28;1466;-71
2023/03/09 05:18:54;;;;;;;;;;;;;;;21.91;27.84;94417.75;5015619;28;1295;-71
2023/03/09 05:21:20;;;;;;;;;;;;;;;22.01;27.79;94414.53;5033673;28;910;-71
2023/03/09 05:23:45;;;;;;;;;;;;;;;22.13;28.04;94404.69;5033272;28;881;-72
2023/03/09 05:26:10;;;;;;;;;;;;;;;22.17;28.19;94415.72;5028492;28;946;-71
2023/03/09 05:28:37;;;;;;;;;;;;;;;22.17;28.38;94397.88;5027806;28;1903;-72
2023/03/09 05:31:02;;;;;;;;;;;;;;;22.19;28.23;94413.69;5003609;28;1205;-71
2023/03/09 05:33:28;;;;;;;;;;;;;;;22.25;28.39;94411.94;4993740;28;897;-71
2023/03/09 05:35:54;;;;;;;;;;;;;;;22.32;28.38;94420.69;4992534;28;1264;-71
2023/03/09 05:38:19;;;;;;;;;;;;;;;22.36;28.39;94419.97;4984040;28;1076;-72
2023/03/09 05:40:44;;;;;;;;;;;;;;;22.43;28.52;94428.72;4992291;28;1267;-71
2023/03/09 05:43:10;;;;;;;;;;;;;;;22.46;28.44;94432.78;4992386;28;1290;-71
2023/03/09 05:45:35;;;;;;;;;;;;;;;22.53;28.53;94446.81;4992367;28;1305;-71
2023/03/09 05:48:00;;;;;;;;;;;;;;;22.58;28.47;94449.63;4993498;28;1895;-71
2023/03/09 05:50:26;;;;;;;;;;;;;;;22.59;28.53;94437.88;4983691;28;1145;-71
2023/03/09 05:52:51;;;;;;;;;;;;;;;22.62;28.74;94423.25;4993627;28;858;-71
2023/03/09 05:55:16;;;;;;;;;;;;;;;22.71;28.54;94432.53;4992273;28;1329;-71
2023/03/09 05:57:42;;;;;;;;;;;;;;;22.70;28.73;94452.31;4993533;28;811;-71
2023/03/09 06:00:09;;;;;;;;;;;;;;;22.73;28.72;94429.63;4991112;28;906;-71
2023/03/09 06:02:35;;;;;;;;;;;;;;;22.77;28.67;94446.81;4985321;28;1333;-71
2023/03/09 06:05:00;;;;;;;;;;;;;;;22.84;28.61;94447.53;4993677;28;859;-71
2023/03/09 06:07:28;;;;;;;;;;;;;;;22.86;28.71;94443.59;4992249;28;1369;-71
2023/03/09 06:09:53;;;;;;;;;;;;;;;22.87;28.63;94452.41;4993384;28;1911;-72
2023/03/09 06:12:18;;;;;;;;;;;;;;;22.87;28.73;94468.47;4982704;28;1457;-72
2023/03/09 06:14:46;;;;;;;;;;;;;;;22.86;28.85;94466.84;4993180;28;1082;-71
2023/03/09 06:17:12;;;;;;;;;;;;;;;22.87;28.75;94447.88;4993406;28;863;-72
2023/03/09 06:19:37;;;;;;;;;;;;;;;22.89;28.87;94461.03;4975829;28;1197;-71
2023/03/09 06:22:02;;;;;;;;;;;;;;;22.92;28.84;94463.25;4975919;28;1222;-73
2023/03/09 06:24:28;;;;;;;;;;;;;;;22.93;28.76;94466.72;4985806;28;1087;-72
2023/03/09 06:26:56;;;;;;;;;;;;;;;22.97;28.89;94466.06;4997335;28;938;-70
2023/03/09 06:29:21;;;;;;;;;;;;;;;22.95;28.86;94460.13;4995936;28;1958;-71
2023/03/09 06:31:46;;;;;;;;;;;;;;;22.97;28.82;94468.75;4997655;28;810;-71
2023/03/09 06:34:11;;;;;;;;;;;;;;;23.01;29.00;94461.06;4995173;28;976;-72
2023/03/09 06:36:37;;;;;;;;;;;;;;;23.00;28.98;94462.13;4989690;28;998;-72
2023/03/09 06:39:02;;;;;;;;;;;;;;;23.02;28.85;94460.81;4995788;28;1495;-72
2023/03/09 06:41:31;;;;;;;;;;;;;;;23.00;28.90;94465.59;4995681;28;1217;-72
2023/03/09 06:43:57;;;;;;;;;;;;;;;22.98;29.02;94462.34;4996900;28;922;-72
2023/03/09 06:46:22;;;;;;;;;;;;;;;22.99;29.01;94471.97;4987240;28;989;-71
2023/03/09 06:48:48;;;;;;;;;;;;;;;23.00;28.95;94452.22;4996612;28;1902;-72
2023/03/09 06:51:13;;;;;;;;;;;;;;;23.02;29.04;94457.31;4979335;28;1289;-72
2023/03/09 06:53:38;;;;;;;;;;;;;;;23.03;28.96;94457.09;4995518;28;1288;-71
2023/03/09 06:56:04;;;;;;;;;;;;;;;23.03;29.03;94446.41;4996643;28;835;-71
2023/03/09 06:58:30;;;;;;;;;;;;;;;23.05;29.02;94447.00;4985420;28;1348;-71
2023/03/09 07:00:56;;;;;;;;;;;;;;;23.05;28.99;94433.63;4996355;28;1352;-72
2023/03/09 07:03:21;;;;;;;;;;;;;;;23.05;29.08;94438.97;4995335;28;1189;-72
2023/03/09 07:05:46;;;;;;;;;;;;;;;23.06;29.17;94437.09;4996513;28;890;-72
2023/03/09 07:08:12;;;;;;;;;;;;;;;23.05;29.29;94438.97;4995863;28;1914;-71
2023/03/09 07:10:37;;;;;;;;;;;;;;;23.09;29.12;94431.28;4969829;28;1205;-71
2023/03/09 07:13:03;;;;;;;;;;;;;;;23.09;29.10;94429.41;4995206;28;1369;-71
2023/03/09 07:15:28;;;;;;;;;;;;;;;23.13;29.19;94440.44;4978665;28;1317;-72
2023/03/09 07:17:54;;;;;;;;;;;;;;;23.13;29.19;94433.22;4996374;28;900;-71
2023/03/09 07:20:23;;;;;;;;;;;;;;;23.15;29.15;94434.88;4988946;28;1056;-71
2023/03/09 07:22:48;;;;;;;;;;;;;;;23.16;29.12;94431.13;4994780;28;1392;-72
2023/03/09 07:25:13;;;;;;;;;;;;;;;23.16;29.20;94439.16;4995195;28;1217;-72
2023/03/09 07:27:39;;;;;;;;;;;;;;;23.18;29.08;94431.72;4996302;28;831;-71
2023/03/09 07:30:04;;;;;;;;;;;;;;;23.22;29.01;94432.88;4996099;28;1902;-72
2023/03/09 07:32:30;;;;;;;;;;;;;;;23.24;28.97;94442.28;4986132;28;1064;-72
2023/03/09 07:34:55;;;;;;;;;;;;;;;23.26;29.06;94434.03;4995299;28;957;-71
2023/03/09 07:37:20;;;;;;;;;;;;;;;23.28;29.05;94442.63;4994500;28;1331;-72
2023/03/09 07:39:45;;;;;;;;;;;;;;;23.30;28.99;94445.88;4995886;28;954;-71
2023/03/09 07:42:11;;;;;;;;;;;;;;;23.31;29.05;94442.97;4995924;28;894;-71
2023/03/09 07:44:36;;;;;;;;;;;;;;;23.29;29.09;94445.06;4985800;28;1064;-71
2023/03/09 07:47:02;;;;;;;;;;;;;;;23.34;29.16;94447.06;4994568;28;1373;-71
2023/03/09 07:49:27;;;;;;;;;;;;;;;23.34;29.05;94439.03;4995797;28;1898;-71
2023/03/09 07:51:53;;;;;;;;;;;;;;;23.25;29.07;94443.09;4996013;28;870;-71
2023/03/09 07:54:19;;;;;;;;;;;;;;;23.33;28.99;94440.84;4990248;28;1284;-71
2023/03/09 07:56:50;;;;;;;;;;;;;;;23.44;28.97;94441.88;4990154;28;1198;-71
2023/03/09 07:59:16;;;;;;;;;;;;;;;23.48;28.68;94445.72;4995682;28;917;-71
2023/03/09 08:01:41;;;;;;;;;;;;;;;23.51;28.82;94444.44;4993580;28;1352;-70
2023/03/09 08:04:06;;;;;;;;;;;;;;;23.40;28.94;94450.66;4994535;28;1167;-70
2023/03/09 08:06:32;;;;;;;;;;;;;;;23.41;29.04;94444.22;4984010;28;1193;-72
2023/03/09 08:08:57;;;;;;;;;;;;;;;23.43;28.92;94426.88;4995136;28;1969;-72
2023/03/09 08:11:23;;;;;;;;;;;;;;;23.45;28.91;94443.53;4993924;28;1381;-72
2023/03/09 08:13:48;;;;;;;;;;;;;;;23.46;28.67;94447.81;4995081;28;775;-73
2023/03/09 08:16:14;;;;;;;;;;;;;;;23.45;28.98;94448.88;4993791;28;1558;-72
2023/03/09 08:18:39;;;;;;;;;;;;;;;23.44;29.01;94452.59;4985039;28;1034;-73
2023/03/09 08:21:05;;;;;;;;;;;;;;;23.45;29.09;94450.72;4994915;28;819;-73
2023/03/09 08:23:31;;;;;;;;;;;;;;;23.46;28.90;94460.41;4993507;28;1187;-73
2023/03/09 08:25:57;;;;;;;;;;;;;;;23.47;28.84;94454.78;4993966;28;1454;-72
2023/03/09 08:28:22;;;;;;;;;;;;;;;23.46;28.86;94447.81;4990103;28;1902;-72
2023/03/09 08:30:48;;;;;;;;;;;;;;;23.48;29.05;94452.94;4988422;28;1233;-72
2023/03/09 08:33:13;;;;;;;;;;;;;;;23.47;29.04;94451.31;4995180;28;894;-72
2023/03/09 08:35:39;;;;;;;;;;;;;;;23.48;28.90;94439.53;4994794;28;871;-73
2023/03/09 08:38:04;;;;;;;;;;;;;;;23.47;29.18;94446.75;4994668;28;888;-73
2023/03/09 08:40:30;;;;;;;;;;;;;;;23.48;29.05;94440.38;4983502;28;1192;-73
2023/03/09 08:42:55;;;;;;;;;;;;;;;23.51;29.14;94436.41;4993352;28;1241;-73
2023/03/09 08:45:20;;;;;;;;;;;;;;;23.48;29.04;94431.50;4993376;28;1279;-73
2023/03/09 08:47:46;;;;;;;;;;;;;;;23.50;29.05;94432.91;4994646;28;865;-72
2023/03/09 08:50:13;;;;;;;;;;;;;;;23.48;28.95;94432.34;4994717;28;1965;-72
2023/03/09 08:52:40;;;;;;;;;;;;;;;23.51;29.09;94431.06;4984588;28;1076;-73
2023/03/09 08:55:07;;;;;;;;;;;;;;;23.50;28.90;94434.78;4994618;28;839;-73
2023/03/09 08:57:32;;;;;;;;;;;;;;;23.49;29.05;94439.31;4994409;28;839;-73
2023/03/09 08:59:57;;;;;;;;;;;;;;;23.48;29.14;94421.63;4992047;28;1339;-73
2023/03/09 09:02:23;;;;;;;;;;;;;;;23.49;29.08;94423.25;4989273;28;1299;-73
2023/03/09 09:04:48;;;;;;;;;;;;;;;23.51;29.08;94431.06;4989591;28;1100;-73
2023/03/09 09:07:14;;;;;;;;;;;;;;;23.50;28.95;94414.16;4994225;28;897;-73
2023/03/09 09:09:40;;;;;;;;;;;;;;;23.48;28.99;94410.09;4992891;28;1910;-73
2023/03/09 09:12:06;;;;;;;;;;;;;;;23.48;28.96;94408.25;4993979;28;831;-73
2023/03/09 09:14:32;;;;;;;;;;;;;;;23.45;29.02;94403.38;4984272;28;1114;-73
2023/03/09 09:16:58;;;;;;;;;;;;;;;23.47;28.99;94411.16;4993977;28;847;-73
2023/03/09 09:19:23;;;;;;;;;;;;;;;23.44;28.98;94391.03;4994021;28;903;-72
2023/03/09 09:21:49;;;;;;;;;;;;;;;23.45;28.94;94381.97;4992017;28;1392;-73
2023/03/09 09:24:14;;;;;;;;;;;;;;;23.45;29.11;94379.28;4993898;28;866;-72
2023/03/09 09:26:41;;;;;;;;;;;;;;;23.44;28.99;94380.31;4983963;28;1198;-73
2023/03/09 09:29:06;;;;;;;;;;;;;;;23.44;29.03;94383.00;4992414;28;1906;-73
2023/03/09 09:31:31;;;;;;;;;;;;;;;23.43;29.24;94386.72;4993741;28;826;-72
2023/03/09 09:33:57;;;;;;;;;;;;;;;23.43;29.04;94392.09;4992962;28;1546;-73
2023/03/09 09:36:24;;;;;;;;;;;;;;;23.43;29.09;94376.03;4989358;28;983;-73
2023/03/09 09:38:51;;;;;;;;;;;;;;;23.42;29.21;94360.19;4988923;28;1112;-73
2023/03/09 09:41:19;;;;;;;;;;;;;;;23.42;29.03;94352.97;4993845;28;823;-73
2023/03/09 09:43:46;;;;;;;;;;;;;;;23.42;29.19;94366.34;4993635;28;859;-72
2023/03/09 09:46:15;;;;;;;;;;;;;;;23.44;29.32;94358.91;4993535;28;1018;-73
2023/03/09 09:48:41;;;;;;;;;;;;;;;23.43;29.12;94362.66;4983547;28;1910;-73
2023/03/09 09:51:14;;;;;;;;;;;;;;;23.43;29.31;94351.94;4993914;28;935;-73
2023/03/09 09:53:57;;;;;;;;;;;;;;;23.42;29.10;94355.66;4992667;28;1375;-73
2023/03/09 09:56:26;;;;;;;;;;;;;;;23.42;29.10;94361.00;4994129;28;843;-73
2023/03/09 09:58:52;;;;;;;;;;;;;;;23.41;29.35;94356.72;4988711;28;957;-73
2023/03/09 10:01:27;;;;;;;;;;;;;;;23.41;29.28;94348.69;4987300;28;1721;-73
2023/03/09 10:03:56;;;;;;;;;;;;;;;23.42;29.32;94352.16;4994046;28;819;-73
2023/03/09 10:06:23;;;;;;;;;;;;;;;23.42;29.32;94336.91;4992592;28;1361;-73
2023/03/09 10:08:51;;;;;;;;;;;;;;;23.41;29.33;94340.66;4993676;28;1899;-73
2023/03/09 10:11:20;;;;;;;;;;;;;;;23.41;29.09;94337.16;4984017;28;1050;-73
2023/03/09 10:13:46;;;;;;;;;;;;;;;23.40;29.31;94328.31;4994054;28;882;-73
2023/03/09 10:16:15;;;;;;;;;;;;;;;23.42;29.20;94320.84;4992789;28;1373;-72
2023/03/09 10:18:43;;;;;;;;;;;;;;;23.41;29.35;94313.88;4992486;28;1341;-72
2023/03/09 10:21:14;;;;;;;;;;;;;;;23.40;29.37;94312.25;4994159;28;807;-73
2023/03/09 10:23:41;;;;;;;;;;;;;;;23.40;29.35;94309.59;4982617;28;1201;-72
2023/03/09 10:26:15;;;;;;;;;;;;;;;23.40;29.22;94300.75;4993549;28;929;-73
2023/03/09 10:28:47;;;;;;;;;;;;;;;23.39;29.37;94302.59;4993498;28;1907;-73
2023/03/09 10:31:18;;;;;;;;;;;;;;;23.40;29.40;94288.19;4993483;28;870;-73
2023/03/09 10:34:03;;;;;;;;;;;;;;;23.39;29.40;94288.41;4983987;28;1036;-72
2023/03/09 10:36:33;;;;;;;;;;;;;;;23.38;29.40;94282.25;4992131;28;1185;-73
2023/03/09 10:39:08;;;;;;;;;;;;;;;23.39;29.41;94283.84;4992304;28;1406;-73
2023/03/09 10:41:35;;;;;;;;;;;;;;;23.39;29.38;94278.50;4993539;28;823;-73
2023/03/09 10:44:00;;;;;;;;;;;;;;;23.39;29.42;94281.19;4992140;28;1382;-72
2023/03/09 10:46:26;;;;;;;;;;;;;;;23.38;29.41;94271.53;4983493;28;1035;-72
2023/03/09 10:49:11;;;;;;;;;;;;;;;23.37;29.37;94261.91;4992824;28;1972;-73
2023/03/09 10:51:38;;;;;;;;;;;;;;;23.40;29.43;94257.94;4991776;28;1316;-73
2023/03/09 10:54:19;;;;;;;;;;;;;;;23.38;29.43;94244.78;4991778;28;1533;-72
2023/03/09 10:56:45;;;;;;;;;;;;;;;23.39;29.41;94249.06;4980876;28;1268;-72
2023/03/09 10:59:15;;;;;;;;;;;;;;;23.40;29.33;94239.19;4992816;28;899;-73
2023/03/09 11:01:42;;;;;;;;;;;;;;;23.38;29.27;94228.72;4991561;28;1312;-74
2023/03/09 11:04:23;;;;;;;;;;;;;;;23.38;29.49;94220.69;4991845;28;1190;-73
2023/03/09 11:06:52;;;;;;;;;;;;;;;23.38;29.28;94220.69;4989649;28;1351;-73
2023/03/09 11:09:19;;;;;;;;;;;;;;;23.39;29.48;94221.50;4985409;28;1982;-73
2023/03/09 11:11:48;;;;;;;;;;;;;;;23.39;29.47;94208.91;4995201;28;930;-72
2023/03/09 11:14:21;;;;;;;;;;;;;;;23.40;29.53;94210.56;4994958;28;1670;-73
2023/03/09 11:16:51;;;;;;;;;;;;;;;23.39;29.32;94208.09;4995045;28;1173;-73
2023/03/09 11:19:17;;;;;;;;;;;;;;;23.41;29.46;94206.00;4986416;28;1103;-71
2023/03/09 11:22:12;;;;;;;;;;;;;;;23.40;29.47;94194.50;4994896;28;1163;-73
2023/03/09 11:24:42;;;;;;;;;;;;;;;23.40;29.62;94191.00;4987593;28;1331;-72
2023/03/09 11:27:13;;;;;;;;;;;;;;;23.39;29.53;94187.50;4996329;28;938;-72
2023/03/09 11:29:38;;;;;;;;;;;;;;;23.39;29.50;94184.81;4991759;28;1911;-72
2023/03/09 11:32:03;;;;;;;;;;;;;;;23.38;29.44;94188.56;4990515;28;1338;-72
2023/03/09 11:34:29;;;;;;;;;;;;;;;23.41;29.38;94174.69;4996955;28;794;-73
2023/03/09 11:36:57;;;;;;;;;;;;;;;23.40;29.41;94165.06;4995663;28;1448;-73
2023/03/09 11:39:33;;;;;;;;;;;;;;;23.41;29.35;94176.56;4995565;28;1328;-72
2023/03/09 11:41:59;;;;;;;;;;;;;;;23.39;29.31;94162.59;4985594;28;1212;-72
2023/03/09 11:44:33;;;;;;;;;;;;;;;23.40;29.50;94158.91;4996325;28;1330;-73
2023/03/09 11:47:19;;;;;;;;;;;;;;;23.39;29.62;94155.38;4995155;28;1379;-72
2023/03/09 11:49:46;;;;;;;;;;;;;;;23.39;29.60;94155.38;4978812;28;1961;-72
2023/03/09 11:52:17;;;;;;;;;;;;;;;23.40;29.33;94140.16;4996243;28;922;-73
2023/03/09 11:54:44;;;;;;;;;;;;;;;23.39;29.33;94131.28;4989684;28;1011;-72
2023/03/09 11:57:14;;;;;;;;;;;;;;;23.40;29.42;94118.75;4996879;28;899;-72
2023/03/09 11:59:43;;;;;;;;;;;;;;;23.40;29.56;94122.22;4996718;28;902;-72
2023/03/09 12:02:27;;;;;;;;;;;;;;;23.39;29.59;94133.97;4994194;28;1321;-73
2023/03/09 12:04:53;;;;;;;;;;;;;;;23.39;29.53;94119.78;4985284;28;1391;-72
2023/03/09 12:07:18;;;;;;;;;;;;;;;23.39;29.59;94109.88;4996876;28;855;-72
2023/03/09 12:09:51;;;;;;;;;;;;;;;23.38;29.54;94102.91;4996568;28;1910;-72
2023/03/09 12:12:19;;;;;;;;;;;;;;;23.39;29.69;94117.91;4994850;28;1365;-72
2023/03/09 12:14:48;;;;;;;;;;;;;;;23.39;29.46;94103.72;4995250;28;1161;-72
2023/03/09 12:17:27;;;;;;;;;;;;;;;23.39;29.60;94101.84;4985571;28;1217;-72
2023/03/09 12:19:53;;;;;;;;;;;;;;;23.39;29.58;94104.53;4994902;28;1237;-72
2023/03/09 12:22:25;;;;;;;;;;;;;;;23.38;29.54;94097.56;4996178;28;850;-72
2023/03/09 12:24:59;;;;;;;;;;;;;;;23.39;29.53;94085.78;4994960;28;1421;-72
2023/03/09 12:27:27;;;;;;;;;;;;;;;23.38;29.54;94078.84;4986661;28;1023;-72
2023/03/09 12:29:54;;;;;;;;;;;;;;;23.39;29.54;94079.63;4996400;28;1902;-72
2023/03/09 12:32:32;;;;;;;;;;;;;;;23.39;29.39;94079.63;4995064;28;1446;-73
2023/03/09 12:34:59;;;;;;;;;;;;;;;23.39;29.43;94077.78;4994955;28;1189;-72
2023/03/09 12:37:29;;;;;;;;;;;;;;;23.40;29.43;94070.56;4994338;28;1335;-72
2023/03/09 12:39:58;;;;;;;;;;;;;;;23.39;29.59;94075.09;4985558;28;1125;-71
2023/03/09 12:42:28;;;;;;;;;;;;;;;23.39;29.32;94085.00;4994183;28;1269;-71
2023/03/09 12:44:56;;;;;;;;;;;;;;;23.38;29.44;94067.31;4995889;28;886;-72
2023/03/09 12:47:22;;;;;;;;;;;;;;;23.37;29.70;94071.88;4994104;28;1559;-72
2023/03/09 12:49:55;;;;;;;;;;;;;;;23.36;29.59;94070.22;4985660;28;1910;-73
2023/03/09 12:52:35;;;;;;;;;;;;;;;23.37;29.61;94082.56;4993504;28;1185;-72
2023/03/09 12:55:01;;;;;;;;;;;;;;;23.36;29.59;94078.25;4993763;28;1348;-72
2023/03/09 12:57:27;;;;;;;;;;;;;;;23.34;29.64;94062.47;4993944;28;1303;-73
2023/03/09 12:59:53;;;;;;;;;;;;;;;23.34;29.77;94065.13;4995034;28;842;-72